WetterOnline ( https://www.wetteronline.de )

Wetter aktuell Lyon

Aktuelles Wetter: Lyon/Satolas (240m)

6-stündlich | Neueste Meldungen
Ortszeit Temperatur Wetter
Sa, 15.08. 8:00 18.8° C wolkenlos
Sa, 15.08. 2:00 19.6° C wolkenlos
Fr, 14.08. 20:00 27.0° C fast wolkenlos
Fr, 14.08. 14:00 25.9° C leicht bewölkt
Fr, 14.08. 8:00 19.7° C wolkig
Fr, 14.08. 2:00 20.8° C leicht bewölkt
Do, 13.08. 20:00 22.7° C wolkig
Do, 13.08. 14:00 29.0° C leicht bewölkt
Ortszeit Temperatur Wetter
Sa, 15.08. 13:30 28° C leicht bewölkt
Sa, 15.08. 13:00 27.0° C fast wolkenlos
Sa, 15.08. 12:30 26° C leicht bewölkt
Sa, 15.08. 12:00 25.1° C fast wolkenlos
Sa, 15.08. 11:30 24° C leicht bewölkt
Sa, 15.08. 11:00 23.4° C fast wolkenlos
Sa, 15.08. 10:30 22° C -
Sa, 15.08. 10:00 21.4° C wolkenlos
Ortszeit Relative Feuchte Sichtweite
Sa, 15.08. 8:00 84% 50 km
Sa, 15.08. 2:00 77% 50 km
Fr, 14.08. 20:00 48% 50 km
Fr, 14.08. 14:00 56% 50 km
Fr, 14.08. 8:00 86% 20 km
Fr, 14.08. 2:00 80% 30 km
Do, 13.08. 20:00 72% 30 km
Do, 13.08. 14:00 42% 30 km
Ortszeit Relative Feuchte Sichtweite
Sa, 15.08. 13:30 42% >10 km
Sa, 15.08. 13:00 50% 50 km
Sa, 15.08. 12:30 58% >10 km
Sa, 15.08. 12:00 59% 50 km
Sa, 15.08. 11:30 65% >10 km
Sa, 15.08. 11:00 66% 50 km
Sa, 15.08. 10:30 73% >10 km
Sa, 15.08. 10:00 75% 50 km
Ortszeit Niederschlagsmenge Niederschlagsart
Sa, 15.08. 8:00 0.0 l/m2 in 12 Std. -
Sa, 15.08. 2:00 0.0 l/m2 in 6 Std. -
Fr, 14.08. 20:00 0.0 l/m2 in 12 Std. -
Fr, 14.08. 14:00 0.0 l/m2 in 6 Std. -
Fr, 14.08. 8:00 0.0 l/m2 in 12 Std. -
Fr, 14.08. 2:00 0.0 l/m2 in 6 Std. -
Do, 13.08. 20:00 0.1 l/m2 in 12 Std. Gewitter, Schauer
Do, 13.08. 14:00 0.0 l/m2 in 6 Std. -
Ortszeit Niederschlagsmenge Niederschlagsart
Sa, 15.08. 13:30 keine Meldung -
Sa, 15.08. 13:00 0.0 l/m2 in 1 Std. -
Sa, 15.08. 12:30 keine Meldung -
Sa, 15.08. 12:00 0.0 l/m2 in 1 Std. -
Sa, 15.08. 11:30 keine Meldung -
Sa, 15.08. 11:00 keine Meldung -
Sa, 15.08. 10:30 keine Meldung -
Sa, 15.08. 10:00 0.0 l/m2 in 1 Std. -
Ortszeit Stärke Spitze Richtung
km/h Bft. km/h Grad Sektor
Sa, 15.08. 8:00 6 1 9 360° N
Sa, 15.08. 2:00 9 2 20 330° NW
Fr, 14.08. 20:00 13 3 24 10° N
Fr, 14.08. 14:00 13 3 24 330° NW
Fr, 14.08. 8:00 0 0 6 - -
Fr, 14.08. 2:00 11 2 15 130° SO
Do, 13.08. 20:00 7 2 35 170° S
Do, 13.08. 14:00 7 2 30 220° SW
Ortszeit Stärke Spitze Richtung
km/h Bft. km/h Grad Sektor
Sa, 15.08. 13:30 11 2 - 340° N
Sa, 15.08. 13:00 9 2 22 340° N
Sa, 15.08. 12:30 9 2 - uml. uml.
Sa, 15.08. 12:00 9 2 20 360° N
Sa, 15.08. 11:30 9 2 - 340° N
Sa, 15.08. 11:00 7 2 17 10° N
Sa, 15.08. 10:30 6 1 - 300° NW
Sa, 15.08. 10:00 6 1 15 350° N
Ortszeit Untergrenze Bedeckung Gattung
total tief tief mittel hoch
Sa, 15.08. 8:00 - 0/8 0/8 - - -
Sa, 15.08. 2:00 - 0/8 0/8 - - -
Fr, 14.08. 20:00 1500 m 1/8 1/8 Cu - Ci
Fr, 14.08. 14:00 1080 m 5/8 4/8 Cu - Ci
Fr, 14.08. 8:00 1500 m 6/8 2/8 Sc As -
Fr, 14.08. 2:00 3300 m 4/8 4/8 - Ac Ci
Do, 13.08. 20:00 1800 m 7/8 1/8 Cb As Ci
Do, 13.08. 14:00 1800 m 5/8 1/8 Cu - Ci
Ortszeit Bedeckungsgrad in Achtel und Wolkenuntergrenze
Sa, 15.08. 13:30 1-2(1500m)
Sa, 15.08. 13:00 1(1380m)
Sa, 15.08. 12:30 1-2(1290m)
Sa, 15.08. 12:00 1(1200m)
Sa, 15.08. 11:30 1-2(1080m)
Sa, 15.08. 11:00 1(990m)
Sa, 15.08. 10:30 keine Wolken(unter 1500 m)
Sa, 15.08. 10:00 keine Wolken
Ortszeit Luftdruck NN (hPa) Tendenz (hPa in 3 Std.)
Sa, 15.08. 8:00 1015 + 0,3
Sa, 15.08. 2:00 1015 - 0,1
Fr, 14.08. 20:00 1013 - 0,4
Fr, 14.08. 14:00 1015 - 0,9
Fr, 14.08. 8:00 1017 + 0,7
Fr, 14.08. 2:00 1016 - 0,3
Do, 13.08. 20:00 1015 + 0,4
Do, 13.08. 14:00 1013 - 1,2
Ortszeit Luftdruck NN (hPa) Tendenz (hPa in 3 Std.)
Sa, 15.08. 13:30 1014 keine Meldung
Sa, 15.08. 13:00 1014 - 0,9
Sa, 15.08. 12:30 1015 keine Meldung
Sa, 15.08. 12:00 1014 - 0,8
Sa, 15.08. 11:30 1015 keine Meldung
Sa, 15.08. 11:00 1015 - 0,2
Sa, 15.08. 10:30 1016 keine Meldung
Sa, 15.08. 10:00 1015 + 0,1
Ortszeit Schneehöhe (cm)
Sa, 15.08. 8:00 -
Sa, 15.08. 2:00 -
Fr, 14.08. 20:00 -
Fr, 14.08. 14:00 -
Fr, 14.08. 8:00 -
Fr, 14.08. 2:00 -
Do, 13.08. 20:00 -
Do, 13.08. 14:00 -
Ortszeit Schneehöhe (cm)
Sa, 15.08. 13:30 -
Sa, 15.08. 13:00 -
Sa, 15.08. 12:30 -
Sa, 15.08. 12:00 -
Sa, 15.08. 11:30 -
Sa, 15.08. 11:00 -
Sa, 15.08. 10:30 -
Sa, 15.08. 10:00 -
Link zu dieser Seite / Seite empfehlen

Das Wetter in ...